Time;durP1;ratioP1;P1;durP2;ratioP2;P2;SDS_P1;SDS_P2;PMS_P1;PMS_P2;Temp;Humidity;BMP_temperature;BMP_pressure;BME280_temperature;BME280_humidity;BME280_pressure;Samples;Min_cycle;Max_cycle;Signal;HPM_P1;HPM_P2
2023/04/01 00:01:23;;;;;;;;;;;;;;;4.72;67.37;100213.31;4992009;28;5056;-79
2023/04/01 00:04:15;;;;;;;;;;;;;;;4.70;67.17;100218.00;4992128;28;5037;-80
2023/04/01 00:07:07;;;;;;;;;;;;;;;4.69;67.39;100224.34;4988208;28;5191;-78
2023/04/01 00:09:59;;;;;;;;;;;;;;;4.67;66.95;100221.03;4993206;28;4704;-78
2023/04/01 00:12:51;;;;;;;;;;;;;;;4.67;67.25;100223.72;4990873;28;5024;-79
2023/04/01 00:15:43;;;;;;;;;;;;;;;4.66;67.30;100224.72;4990155;28;4742;-79
2023/04/01 00:18:35;;;;;;;;;;;;;;;4.63;67.13;100222.44;4990272;28;5112;-78
2023/04/01 00:21:27;;;;;;;;;;;;;;;4.63;67.12;100228.59;4994239;28;4271;-79
2023/04/01 00:24:18;;;;;;;;;;;;;;;4.66;66.89;100230.06;4990652;28;5110;-82
2023/04/01 00:27:10;;;;;;;;;;;;;;;4.63;67.07;100225.09;4989444;28;4903;-79
2023/04/01 00:30:02;;;;;;;;;;;;;;;4.60;67.08;100225.50;4992849;28;4764;-79
2023/04/01 00:32:54;;;;;;;;;;;;;;;4.62;66.89;100224.28;4991599;28;4910;-79
2023/04/01 00:35:46;;;;;;;;;;;;;;;4.61;67.04;100227.13;4990759;28;4953;-80
2023/04/01 00:38:38;;;;;;;;;;;;;;;4.59;66.97;100229.16;4988291;28;4881;-79
2023/04/01 00:41:30;;;;;;;;;;;;;;;4.60;66.62;100230.81;4986174;28;4911;-78
2023/04/01 00:44:22;;;;;;;;;;;;;;;4.59;67.01;100229.16;4989531;28;5007;-79
2023/04/01 00:47:14;;;;;;;;;;;;;;;4.58;66.79;100236.34;4989334;28;5033;-80
2023/04/01 00:50:06;;;;;;;;;;;;;;;4.56;66.93;100241.06;4989349;28;5079;-80
2023/04/01 00:52:58;;;;;;;;;;;;;;;4.55;66.59;100245.53;4990866;28;4049;-80
2023/04/01 00:55:51;;;;;;;;;;;;;;;4.55;66.81;100250.88;4992232;28;4815;-80
2023/04/01 00:58:42;;;;;;;;;;;;;;;4.54;66.72;100249.22;4994134;28;3546;-79
2023/04/01 01:01:34;;;;;;;;;;;;;;;4.55;66.51;100247.38;4989376;28;3446;-79
2023/04/01 01:04:26;;;;;;;;;;;;;;;4.53;66.79;100247.59;4989432;28;4605;-80
2023/04/01 01:07:18;;;;;;;;;;;;;;;4.52;66.91;100247.75;4990021;28;4950;-80
2023/04/01 01:10:09;;;;;;;;;;;;;;;4.51;66.63;100243.44;4991316;28;4922;-80
2023/04/01 01:13:01;;;;;;;;;;;;;;;4.51;66.70;100248.78;4985630;28;4782;-80
2023/04/01 01:15:53;;;;;;;;;;;;;;;4.51;66.55;100254.13;4988094;28;4726;-79
2023/04/01 01:18:45;;;;;;;;;;;;;;;4.49;66.63;100248.94;4989400;28;4683;-80
2023/04/01 01:21:37;;;;;;;;;;;;;;;4.50;66.94;100255.09;4993126;28;5027;-80
2023/04/01 01:24:29;;;;;;;;;;;;;;;4.51;66.34;100249.59;4992154;28;4940;-80
2023/04/01 01:27:21;;;;;;;;;;;;;;;4.48;66.63;100257.16;4989629;28;4511;-80
2023/04/01 01:30:13;;;;;;;;;;;;;;;4.49;66.55;100254.28;4989882;28;4832;-80
2023/04/01 01:33:05;;;;;;;;;;;;;;;4.48;66.73;100257.16;4983761;28;4970;-80
2023/04/01 01:35:57;;;;;;;;;;;;;;;4.51;66.27;100262.13;4988178;28;4882;-80
2023/04/01 01:38:49;;;;;;;;;;;;;;;4.47;66.58;100272.34;4991108;28;4890;-81
2023/04/01 01:41:41;;;;;;;;;;;;;;;4.48;66.50;100267.81;4989927;28;5107;-79
2023/04/01 01:44:33;;;;;;;;;;;;;;;4.48;66.40;100275.81;4991521;28;4511;-79
2023/04/01 01:47:25;;;;;;;;;;;;;;;4.49;66.31;100278.28;4986855;28;4658;-81
2023/04/01 01:50:17;;;;;;;;;;;;;;;4.48;66.34;100267.81;4990090;28;4745;-78
2023/04/01 01:53:09;;;;;;;;;;;;;;;4.47;66.60;100269.66;4990631;28;4928;-80
2023/04/01 01:56:01;;;;;;;;;;;;;;;4.47;66.25;100277.66;4990380;28;4806;-79
2023/04/01 01:58:53;;;;;;;;;;;;;;;4.45;66.31;100278.88;4990928;28;4723;-81
2023/04/01 02:01:45;;;;;;;;;;;;;;;4.46;66.23;100285.84;4990218;28;5006;-80
2023/04/01 02:04:39;;;;;;;;;;;;;;;4.47;66.11;100280.34;4986672;28;5122;-80
2023/04/01 02:07:30;;;;;;;;;;;;;;;4.46;66.27;100293.84;4989528;28;4649;-80
2023/04/01 02:10:22;;;;;;;;;;;;;;;4.45;66.18;100289.53;4988880;28;5023;-81
2023/04/01 02:13:15;;;;;;;;;;;;;;;4.47;66.13;100295.47;4988904;28;4601;-80
2023/04/01 02:16:07;;;;;;;;;;;;;;;4.44;66.12;100298.53;4990877;28;4826;-80
2023/04/01 02:18:58;;;;;;;;;;;;;;;4.48;65.72;100295.31;4987628;28;5049;-81
2023/04/01 02:21:51;;;;;;;;;;;;;;;4.49;65.98;100296.97;4991288;28;5048;-80
2023/04/01 02:24:43;;;;;;;;;;;;;;;4.46;66.05;100297.34;4991682;28;4644;-82
2023/04/01 02:27:34;;;;;;;;;;;;;;;4.45;65.95;100302.88;4990261;28;5197;-81
2023/04/01 02:30:26;;;;;;;;;;;;;;;4.44;65.75;100309.19;4983275;28;4913;-81
2023/04/01 02:33:18;;;;;;;;;;;;;;;4.47;66.13;100309.66;4988984;28;4985;-80
2023/04/01 02:36:11;;;;;;;;;;;;;;;4.41;66.12;100306.91;4990061;28;4023;-80
2023/04/01 02:39:04;;;;;;;;;;;;;;;4.48;65.63;100313.97;4987601;28;4555;-80
2023/04/01 02:41:55;;;;;;;;;;;;;;;4.43;66.02;100315.53;4989414;28;5005;-80
2023/04/01 02:44:47;;;;;;;;;;;;;;;4.43;65.90;100318.22;4985934;28;5019;-80
2023/04/01 02:47:39;;;;;;;;;;;;;;;4.49;65.87;100325.47;4988463;28;4826;-80
2023/04/01 02:50:31;;;;;;;;;;;;;;;4.51;65.56;100320.78;4990869;28;4902;-79
2023/04/01 02:53:23;;;;;;;;;;;;;;;4.47;65.79;100324.81;4991131;28;4161;-81
2023/04/01 02:56:15;;;;;;;;;;;;;;;4.42;65.79;100322.72;4991935;28;4140;-81
2023/04/01 02:59:07;;;;;;;;;;;;;;;4.45;65.62;100327.69;4991409;28;4276;-79
2023/04/01 03:01:59;;;;;;;;;;;;;;;4.44;65.56;100330.53;4986438;28;4233;-81
2023/04/01 03:04:51;;;;;;;;;;;;;;;4.45;65.65;100332.19;4981382;28;4657;-81
2023/04/01 03:07:43;;;;;;;;;;;;;;;4.45;65.57;100337.53;4978799;28;4811;-81
2023/04/01 03:10:35;;;;;;;;;;;;;;;4.46;65.54;100334.66;4980210;28;4272;-81
2023/04/01 03:13:27;;;;;;;;;;;;;;;4.45;65.54;100335.69;4981714;28;4200;-81
2023/04/01 03:16:19;;;;;;;;;;;;;;;4.49;65.48;100346.81;4977509;28;3946;-81
2023/04/01 03:19:11;;;;;;;;;;;;;;;4.51;65.27;100347.47;4978655;28;4050;-81
2023/04/01 03:22:03;;;;;;;;;;;;;;;4.47;65.55;100344.34;4983606;28;4754;-82
2023/04/01 03:24:54;;;;;;;;;;;;;;;4.54;64.97;100353.25;4990801;28;5268;-82
2023/04/01 03:27:46;;;;;;;;;;;;;;;4.44;65.66;100351.84;4988550;28;4205;-82
2023/04/01 03:30:38;;;;;;;;;;;;;;;4.49;65.50;100355.63;4990793;28;4252;-81
2023/04/01 03:33:30;;;;;;;;;;;;;;;4.49;65.39;100357.47;4984944;28;4547;-81
2023/04/01 03:36:22;;;;;;;;;;;;;;;4.49;65.20;100357.47;4974076;28;4657;-81
2023/04/01 03:39:18;;;;;;;;;;;;;;;4.47;65.24;100362.16;4981235;28;4904;-81
2023/04/01 03:42:10;;;;;;;;;;;;;;;4.43;65.36;100358.22;4985576;28;4116;-81
2023/04/01 03:45:02;;;;;;;;;;;;;;;4.47;65.34;100359.50;4988959;28;4878;-80
2023/04/01 03:47:54;;;;;;;;;;;;;;;4.48;65.29;100362.00;4981278;28;4870;-81
2023/04/01 03:50:46;;;;;;;;;;;;;;;4.50;65.39;100359.97;4980224;28;4566;-82
2023/04/01 03:53:38;;;;;;;;;;;;;;;4.48;65.04;100370.00;4979875;28;4772;-82
2023/04/01 03:56:30;;;;;;;;;;;;;;;4.46;65.24;100366.66;4984573;28;4889;-79
2023/04/01 03:59:22;;;;;;;;;;;;;;;4.49;65.04;100374.31;4978750;28;3889;-81
2023/04/01 04:02:14;;;;;;;;;;;;;;;4.53;65.03;100374.78;4984589;28;5036;-81
2023/04/01 04:05:06;;;;;;;;;;;;;;;4.46;65.16;100373.84;4979923;28;4645;-81
2023/04/01 04:07:59;;;;;;;;;;;;;;;4.49;65.12;100374.31;4988103;28;4793;-81
2023/04/01 04:10:50;;;;;;;;;;;;;;;4.55;64.87;100383.41;4983463;28;4992;-81
2023/04/01 04:13:43;;;;;;;;;;;;;;;4.48;65.19;100380.66;4981940;28;4562;-83
2023/04/01 04:16:36;;;;;;;;;;;;;;;4.45;65.14;100383.69;4976061;28;4849;-79
2023/04/01 04:19:27;;;;;;;;;;;;;;;4.54;64.86;100379.09;4976623;28;4570;-80
2023/04/01 04:22:19;;;;;;;;;;;;;;;4.58;64.86;100379.56;4976142;28;4504;-81
2023/04/01 04:25:11;;;;;;;;;;;;;;;4.57;64.55;100386.72;4981904;28;4377;-80
2023/04/01 04:28:03;;;;;;;;;;;;;;;4.52;64.75;100392.59;4983241;28;4955;-81
2023/04/01 04:30:55;;;;;;;;;;;;;;;4.53;64.62;100399.63;4982453;28;4723;-80
2023/04/01 04:33:47;;;;;;;;;;;;;;;4.47;64.81;100407.50;4982187;28;4531;-81
2023/04/01 04:36:39;;;;;;;;;;;;;;;4.48;64.69;100402.00;4977642;28;3939;-81
2023/04/01 04:39:31;;;;;;;;;;;;;;;4.54;64.64;100406.59;4980233;28;4828;-80
2023/04/01 04:42:23;;;;;;;;;;;;;;;4.52;64.69;100410.44;4975528;28;4740;-81
2023/04/01 04:45:15;;;;;;;;;;;;;;;4.54;64.88;100417.25;4979461;28;4682;-81
2023/04/01 04:48:07;;;;;;;;;;;;;;;4.53;64.69;100418.28;4982087;28;4705;-81
2023/04/01 04:51:00;;;;;;;;;;;;;;;4.55;64.51;100410.91;4975447;28;4596;-80
2023/04/01 04:53:51;;;;;;;;;;;;;;;4.51;64.60;100427.47;4974737;28;4650;-82
2023/04/01 04:56:43;;;;;;;;;;;;;;;4.51;64.56;100430.13;4977007;28;4578;-80
2023/04/01 04:59:36;;;;;;;;;;;;;;;4.55;64.46;100432.25;4976934;28;4963;-81
2023/04/01 05:02:28;;;;;;;;;;;;;;;4.62;64.37;100436.84;4985242;28;4843;-81
2023/04/01 05:05:20;;;;;;;;;;;;;;;4.57;64.46;100450.75;4987039;28;4511;-79
2023/04/01 05:08:11;;;;;;;;;;;;;;;4.51;64.83;100448.81;4988925;28;4907;-81
2023/04/01 05:11:03;;;;;;;;;;;;;;;4.54;64.33;100449.28;4981721;28;4664;-80
2023/04/01 05:13:55;;;;;;;;;;;;;;;4.58;64.50;100456.91;4986991;28;3952;-79
2023/04/01 05:16:47;;;;;;;;;;;;;;;4.54;64.59;100451.94;4989593;28;4776;-81
2023/04/01 05:19:39;;;;;;;;;;;;;;;4.60;64.26;100457.56;4986713;28;4863;-80
2023/04/01 05:22:31;;;;;;;;;;;;;;;4.52;64.58;100453.13;4985612;28;4902;-80
2023/04/01 05:25:23;;;;;;;;;;;;;;;4.50;64.51;100456.00;4983511;28;4877;-80
2023/04/01 05:28:15;;;;;;;;;;;;;;;4.58;64.56;100454.25;4985467;28;4969;-80
2023/04/01 05:31:07;;;;;;;;;;;;;;;4.54;64.40;100453.78;4990592;28;4851;-78
2023/04/01 05:33:59;;;;;;;;;;;;;;;4.61;64.04;100467.22;4987176;28;4279;-79
2023/04/01 05:36:51;;;;;;;;;;;;;;;4.53;64.40;100465.47;4981207;28;4716;-80
2023/04/01 05:39:43;;;;;;;;;;;;;;;4.59;64.16;100469.22;4973164;28;4741;-80
2023/04/01 05:42:35;;;;;;;;;;;;;;;4.61;64.23;100473.38;4969330;28;4818;-79
2023/04/01 05:45:28;;;;;;;;;;;;;;;4.60;64.08;100469.06;4970169;28;4629;-81
2023/04/01 05:48:20;;;;;;;;;;;;;;;4.62;63.99;100471.53;4964461;28;4978;-80
2023/04/01 05:51:12;;;;;;;;;;;;;;;4.52;64.62;100469.13;4971387;28;5014;-80
2023/04/01 05:54:04;;;;;;;;;;;;;;;4.54;64.41;100475.13;4971326;28;4878;-80
2023/04/01 05:56:56;;;;;;;;;;;;;;;4.53;64.80;100473.47;4970119;28;4858;-80
2023/04/01 05:59:48;;;;;;;;;;;;;;;4.61;64.11;100478.69;4966737;28;5030;-82
2023/04/01 06:02:43;;;;;;;;;;;;;;;4.55;64.48;100477.59;4959565;28;4697;-80
2023/04/01 06:05:37;;;;;;;;;;;;;;;4.61;64.01;100483.22;4961340;28;4878;-79
2023/04/01 06:08:29;;;;;;;;;;;;;;;4.58;64.19;100491.59;4967322;28;4720;-82
2023/04/01 06:11:21;;;;;;;;;;;;;;;4.62;63.95;100485.72;4968977;28;4896;-81
2023/04/01 06:14:13;;;;;;;;;;;;;;;4.65;63.88;100492.53;4961219;28;3932;-81
2023/04/01 06:17:05;;;;;;;;;;;;;;;4.66;63.80;100494.19;4959043;28;4857;-81
2023/04/01 06:19:57;;;;;;;;;;;;;;;4.62;63.98;100491.06;4959269;28;4796;-80
2023/04/01 06:22:49;;;;;;;;;;;;;;;4.63;63.99;100503.38;4961250;28;4821;-78
2023/04/01 06:25:41;;;;;;;;;;;;;;;4.61;64.11;100507.22;4966284;28;4340;-78
2023/04/01 06:28:33;;;;;;;;;;;;;;;4.62;64.13;100507.06;4957198;28;4606;-79
2023/04/01 06:31:25;;;;;;;;;;;;;;;4.58;64.05;100512.91;4964723;28;4628;-79
2023/04/01 06:34:17;;;;;;;;;;;;;;;4.54;64.22;100509.78;4968886;28;4764;-78
2023/04/01 06:37:09;;;;;;;;;;;;;;;4.66;63.99;100515.50;4965169;28;4571;-79
2023/04/01 06:40:01;;;;;;;;;;;;;;;4.71;63.60;100516.63;4961766;28;3965;-78
2023/04/01 06:42:53;;;;;;;;;;;;;;;4.66;63.84;100512.84;4958648;28;4215;-80
2023/04/01 06:45:45;;;;;;;;;;;;;;;4.61;64.11;100512.56;4956429;28;4793;-79
2023/04/01 06:48:38;;;;;;;;;;;;;;;4.63;63.96;100516.72;4955711;28;4511;-79
2023/04/01 06:51:29;;;;;;;;;;;;;;;4.66;63.78;100521.69;4958779;28;4807;-79
2023/04/01 06:54:22;;;;;;;;;;;;;;;4.67;63.85;100530.50;4957890;28;4585;-79
2023/04/01 06:57:13;;;;;;;;;;;;;;;4.66;63.85;100528.84;4958896;28;4504;-78
2023/04/01 07:00:04;;;;;;;;;;;;;;;4.61;64.04;100531.22;4956732;28;4669;-78
2023/04/01 07:02:58;;;;;;;;;;;;;;;4.64;64.06;100536.19;4958955;28;4762;-78
2023/04/01 07:05:50;;;;;;;;;;;;;;;4.69;63.79;100537.31;4958894;28;4717;-79
2023/04/01 07:08:42;;;;;;;;;;;;;;;4.67;63.83;100544.66;4958359;28;4710;-80
2023/04/01 07:11:33;;;;;;;;;;;;;;;4.72;63.60;100546.81;4957174;28;4005;-81
2023/04/01 07:14:25;;;;;;;;;;;;;;;4.61;64.03;100556.06;4963064;28;4383;-82
2023/04/01 07:17:20;;;;;;;;;;;;;;;4.57;64.46;100562.78;4963136;28;3923;-81
2023/04/01 07:20:12;;;;;;;;;;;;;;;4.64;64.07;100562.88;4960034;28;4753;-81
2023/04/01 07:23:05;;;;;;;;;;;;;;;4.64;64.08;100570.88;4964065;28;4766;-82
2023/04/01 07:25:56;;;;;;;;;;;;;;;4.66;64.06;100576.88;4963967;28;4619;-83
2023/04/01 07:28:48;;;;;;;;;;;;;;;4.71;63.87;100574.50;4962486;28;4809;-83
2023/04/01 07:31:40;;;;;;;;;;;;;;;4.74;63.60;100572.31;4971052;28;4664;-82
2023/04/01 07:34:32;;;;;;;;;;;;;;;4.78;63.78;100578.91;4968996;28;3736;-82
2023/04/01 07:37:24;;;;;;;;;;;;;;;4.83;63.64;100583.72;4981749;28;4627;-83
2023/04/01 07:40:17;;;;;;;;;;;;;;;4.76;63.82;100580.97;4990934;28;4939;-83
2023/04/01 07:43:09;;;;;;;;;;;;;;;4.77;63.74;100590.63;4987120;28;2936;-82
2023/04/01 07:46:00;;;;;;;;;;;;;;;4.77;63.64;100589.78;4990726;28;3727;-82
2023/04/01 07:48:52;;;;;;;;;;;;;;;4.83;63.70;100588.25;4990060;28;4614;-83
2023/04/01 07:51:44;;;;;;;;;;;;;;;4.91;63.31;100591.66;4989551;28;3880;-83
2023/04/01 07:54:36;;;;;;;;;;;;;;;4.78;63.94;100600.28;4994474;28;5091;-82
2023/04/01 07:57:28;;;;;;;;;;;;;;;4.79;63.87;100598.41;4989705;28;4862;-80
2023/04/01 08:00:21;;;;;;;;;;;;;;;4.82;63.73;100597.25;4984860;28;3952;-81
2023/04/01 08:03:12;;;;;;;;;;;;;;;4.88;63.72;100597.38;4985913;28;4625;-79
2023/04/01 08:06:05;;;;;;;;;;;;;;;4.88;63.70;100608.03;4985651;28;4598;-81
2023/04/01 08:08:56;;;;;;;;;;;;;;;4.83;63.93;100607.75;4988016;28;3795;-82
2023/04/01 08:11:48;;;;;;;;;;;;;;;4.84;63.81;100608.56;4989291;28;4043;-81
2023/04/01 08:14:40;;;;;;;;;;;;;;;4.88;63.72;100608.03;4992877;28;4257;-81
2023/04/01 08:17:32;;;;;;;;;;;;;;;4.85;63.86;100610.22;4994640;28;3984;-81
2023/04/01 08:20:23;;;;;;;;;;;;;;;4.89;63.91;100609.69;4993811;28;4526;-80
2023/04/01 08:23:15;;;;;;;;;;;;;;;4.92;63.70;100613.84;4993099;28;4855;-80
2023/04/01 08:26:07;;;;;;;;;;;;;;;4.95;63.75;100608.97;4992003;28;4739;-80
2023/04/01 08:28:59;;;;;;;;;;;;;;;4.99;63.64;100612.09;4988210;28;4692;-79
2023/04/01 08:31:51;;;;;;;;;;;;;;;4.98;63.71;100615.78;4991598;28;3944;-79
2023/04/01 08:34:43;;;;;;;;;;;;;;;5.01;63.76;100624.25;4989377;28;3763;-78
2023/04/01 08:37:35;;;;;;;;;;;;;;;5.01;63.75;100620.75;4994589;28;4983;-81
2023/04/01 08:40:27;;;;;;;;;;;;;;;5.06;63.62;100620.19;4995219;28;1851;-81
2023/04/01 08:43:19;;;;;;;;;;;;;;;5.04;63.88;100623.06;4991749;28;5135;-80
2023/04/01 08:46:12;;;;;;;;;;;;;;;5.06;63.65;100626.38;4990893;28;4633;-80
2023/04/01 08:49:04;;;;;;;;;;;;;;;5.03;63.73;100629.41;4986386;28;3988;-79
2023/04/01 08:51:56;;;;;;;;;;;;;;;5.03;63.77;100631.22;4990700;28;3602;-78
2023/04/01 08:54:47;;;;;;;;;;;;;;;5.02;64.01;100635.75;4993396;28;5017;-76
2023/04/01 08:57:39;;;;;;;;;;;;;;;5.10;63.78;100634.84;4988466;28;4848;-76
2023/04/01 09:00:31;;;;;;;;;;;;;;;5.10;63.76;100638.34;4984391;28;4485;-79
2023/04/01 09:03:22;;;;;;;;;;;;;;;5.10;63.93;100640.19;4988148;28;4480;-78
2023/04/01 09:06:14;;;;;;;;;;;;;;;5.17;63.60;100641.13;4986404;28;4495;-77
2023/04/01 09:09:06;;;;;;;;;;;;;;;5.12;63.82;100644.34;4986860;28;3938;-77
2023/04/01 09:11:58;;;;;;;;;;;;;;;5.10;63.77;100643.69;4989015;28;4599;-77
2023/04/01 09:14:50;;;;;;;;;;;;;;;5.11;64.12;100645.34;4990494;28;4385;-77
2023/04/01 09:17:42;;;;;;;;;;;;;;;5.15;63.76;100645.81;4983727;28;4903;-79
2023/04/01 09:20:35;;;;;;;;;;;;;;;5.14;64.00;100652.16;4987390;28;4764;-78
2023/04/01 09:23:28;;;;;;;;;;;;;;;5.14;64.09;100657.50;4990898;28;4720;-79
2023/04/01 09:26:19;;;;;;;;;;;;;;;5.14;64.25;100644.97;4991460;28;4966;-79
2023/04/01 09:29:11;;;;;;;;;;;;;;;5.11;64.54;100657.88;4988911;28;2956;-80
2023/04/01 09:32:02;;;;;;;;;;;;;;;5.14;64.12;100647.66;4990532;28;4609;-80
2023/04/01 09:34:55;;;;;;;;;;;;;;;5.17;64.34;100657.13;4994614;28;4895;-79
2023/04/01 09:37:46;;;;;;;;;;;;;;;5.14;64.40;100658.31;4991047;28;3907;-79
2023/04/01 09:40:38;;;;;;;;;;;;;;;5.16;64.23;100656.31;4993853;28;2047;-78
2023/04/01 09:43:30;;;;;;;;;;;;;;;5.19;64.23;100668.47;4992843;28;4933;-79
2023/04/01 09:46:21;;;;;;;;;;;;;;;5.19;64.51;100657.78;4993545;28;4615;-79
2023/04/01 09:49:13;;;;;;;;;;;;;;;5.23;64.35;100665.28;4990723;28;5042;-79
2023/04/01 09:52:05;;;;;;;;;;;;;;;5.25;64.39;100657.06;4988770;28;4935;-79
2023/04/01 09:54:57;;;;;;;;;;;;;;;5.30;64.23;100667.22;4988154;28;4681;-78
2023/04/01 09:57:49;;;;;;;;;;;;;;;5.28;64.24;100659.38;4990407;28;3848;-78
2023/04/01 10:00:41;;;;;;;;;;;;;;;5.27;64.52;100665.72;4986649;28;5003;-78
2023/04/01 10:03:32;;;;;;;;;;;;;;;5.27;64.53;100665.72;4981933;28;4330;-76
2023/04/01 10:06:24;;;;;;;;;;;;;;;5.28;64.45;100671.91;4981221;28;4812;-76
2023/04/01 10:09:16;;;;;;;;;;;;;;;5.34;64.55;100671.16;4981358;28;3761;-76
2023/04/01 10:12:09;;;;;;;;;;;;;;;4.62;43.12;100660.94;4976774;28;4908;-74
2023/04/01 10:15:01;;;;;;;;;;;;;;;5.08;48.61;100667.06;4971049;28;4633;-79
2023/04/01 10:17:52;;;;;;;;;;;;;;;5.34;51.57;100666.66;4979737;28;4633;-80
2023/04/01 10:20:43;;;;;;;;;;;;;;;5.38;53.87;100667.97;4975625;28;4909;-78
2023/04/01 10:23:35;;;;;;;;;;;;;;;4.88;44.57;100668.56;4975394;28;4736;-80
2023/04/01 10:26:28;;;;;;;;;;;;;;;5.28;53.22;100663.88;4973454;28;4436;-80
2023/04/01 10:29:20;;;;;;;;;;;;;;;5.35;54.38;100670.97;4981790;28;4745;-79
2023/04/01 10:32:11;;;;;;;;;;;;;;;5.43;55.60;100660.19;4980244;28;4839;-76
2023/04/01 10:35:03;;;;;;;;;;;;;;;5.45;56.53;100673.38;4984137;28;4813;-76
2023/04/01 10:37:55;;;;;;;;;;;;;;;5.47;57.21;100663.31;4987812;28;4786;-77
2023/04/01 10:40:47;;;;;;;;;;;;;;;5.51;57.80;100671.84;4988678;28;4709;-77
2023/04/01 10:43:39;;;;;;;;;;;;;;;5.51;58.57;100669.97;4992301;28;3877;-77
2023/04/01 10:46:31;;;;;;;;;;;;;;;5.51;59.10;100674.50;4991719;28;4989;-79
2023/04/01 10:49:24;;;;;;;;;;;;;;;5.57;59.23;100677.25;4985549;28;5089;-79
2023/04/01 10:52:15;;;;;;;;;;;;;;;5.54;59.80;100674.13;4991425;28;5030;-79
2023/04/01 10:55:07;;;;;;;;;;;;;;;5.57;60.21;100679.94;4998473;28;4605;-79
2023/04/01 10:57:59;;;;;;;;;;;;;;;5.56;60.39;100680.97;4996959;28;4712;-82
2023/04/01 11:00:51;;;;;;;;;;;;;;;5.58;60.88;100686.09;4997622;28;4981;-82
2023/04/01 11:03:43;;;;;;;;;;;;;;;5.58;60.94;100686.09;4997856;28;3885;-85
2023/04/01 11:06:34;;;;;;;;;;;;;;;5.64;61.19;100685.38;4996635;28;4813;-83
2023/04/01 11:09:27;;;;;;;;;;;;;;;5.66;61.24;100688.69;4993185;28;4771;-84
2023/04/01 11:12:19;;;;;;;;;;;;;;;5.69;61.24;100688.31;4994169;28;3921;-87
2023/04/01 11:15:10;;;;;;;;;;;;;;;5.67;61.61;100693.84;4994484;28;5032;-80
2023/04/01 11:18:01;;;;;;;;;;;;;;;5.69;61.84;100699.84;4995812;28;4834;-81
2023/04/01 11:20:53;;;;;;;;;;;;;;;5.73;61.75;100697.63;4992845;28;4051;-83
2023/04/01 11:23:46;;;;;;;;;;;;;;;5.75;61.97;100700.13;4999464;28;4673;-83
2023/04/01 11:26:37;;;;;;;;;;;;;;;5.73;56.76;100702.13;4995677;28;4058;-79
2023/04/01 11:29:30;;;;;;;;;;;;;;;5.75;61.07;100703.63;4994081;28;4629;-78
2023/04/01 11:32:21;;;;;;;;;;;;;;;5.79;60.05;100704.06;4991762;28;4495;-76
2023/04/01 11:35:13;;;;;;;;;;;;;;;5.80;60.85;100703.91;4992653;28;4536;-76
2023/04/01 11:38:06;;;;;;;;;;;;;;;5.85;61.16;100709.53;4992087;28;4826;-75
2023/04/01 11:40:59;;;;;;;;;;;;;;;5.86;61.02;100711.19;4991260;28;4857;-78
2023/04/01 11:43:50;;;;;;;;;;;;;;;5.87;61.58;100699.47;4992594;28;4870;-79
2023/04/01 11:46:42;;;;;;;;;;;;;;;5.89;61.73;100708.13;4989798;28;5042;-79
2023/04/01 11:49:34;;;;;;;;;;;;;;;5.94;61.58;100707.59;4990473;28;4906;-76
2023/04/01 11:52:27;;;;;;;;;;;;;;;5.79;62.00;100688.84;4989898;28;4953;-75
2023/04/01 11:55:18;;;;;;;;;;;;;;;5.95;62.06;100701.25;4987915;28;4988;-78
2023/04/01 11:58:10;;;;;;;;;;;;;;;5.95;62.13;100706.59;4989021;28;4926;-80
2023/04/01 12:01:02;;;;;;;;;;;;;;;6.00;62.33;100708.69;4989379;28;4788;-79
2023/04/01 12:03:54;;;;;;;;;;;;;;;6.03;62.21;100713.66;4988199;28;4850;-76
2023/04/01 12:06:46;;;;;;;;;;;;;;;6.03;62.42;100706.50;4986751;28;4777;-79
2023/04/01 12:09:38;;;;;;;;;;;;;;;5.99;62.68;100701.69;4988310;28;4658;-79
2023/04/01 12:12:31;;;;;;;;;;;;;;;6.05;62.56;100714.31;4987556;28;4880;-78
2023/04/01 12:15:22;;;;;;;;;;;;;;;6.06;62.50;100706.13;4984503;28;4824;-79
2023/04/01 12:18:14;;;;;;;;;;;;;;;6.08;62.79;100711.28;4978889;28;4974;-78
2023/04/01 12:21:06;;;;;;;;;;;;;;;6.09;62.73;100710.28;4969780;28;4900;-77
2023/04/01 12:23:58;;;;;;;;;;;;;;;6.10;62.73;100715.44;4985855;28;3970;-80
2023/04/01 12:26:50;;;;;;;;;;;;;;;6.10;62.92;100720.78;4984755;28;4853;-78
2023/04/01 12:29:42;;;;;;;;;;;;;;;6.11;63.20;100719.75;4985759;28;5220;-79
2023/04/01 12:32:34;;;;;;;;;;;;;;;6.14;63.19;100726.56;4984552;28;5048;-79
2023/04/01 12:35:26;;;;;;;;;;;;;;;6.17;63.07;100734.22;4985032;28;4847;-77
2023/04/01 12:38:18;;;;;;;;;;;;;;;6.14;63.29;100727.41;4986639;28;4610;-77
2023/04/01 12:41:11;;;;;;;;;;;;;;;6.15;63.52;100733.59;4986989;28;4628;-81
2023/04/01 12:44:02;;;;;;;;;;;;;;;6.19;63.42;100734.88;4987463;28;4968;-77
2023/04/01 12:46:54;;;;;;;;;;;;;;;6.18;63.86;100735.03;4986589;28;3978;-80
2023/04/01 12:49:46;;;;;;;;;;;;;;;6.22;63.54;100729.16;4975499;28;4898;-79
2023/04/01 12:52:39;;;;;;;;;;;;;;;6.22;63.71;100736.34;4970269;28;5098;-79
2023/04/01 12:55:30;;;;;;;;;;;;;;;6.23;63.83;100736.16;4965805;28;4846;-76
2023/04/01 12:58:22;;;;;;;;;;;;;;;6.26;63.64;100733.09;4969869;28;4672;-75
2023/04/01 13:01:15;;;;;;;;;;;;;;;6.29;63.58;100734.56;4972926;28;4570;-78
2023/04/01 13:04:06;;;;;;;;;;;;;;;6.29;64.09;100729.22;4968150;28;4870;-77
2023/04/01 13:06:58;;;;;;;;;;;;;;;6.30;64.01;100733.56;4973849;28;4590;-79
2023/04/01 13:09:50;;;;;;;;;;;;;;;6.31;63.82;100725.34;4986092;28;4712;-75
2023/04/01 13:12:43;;;;;;;;;;;;;;;6.33;63.94;100727.84;4987184;28;4917;-77
2023/04/01 13:15:35;;;;;;;;;;;;;;;6.35;64.17;100721.31;4987035;28;4597;-78
2023/04/01 13:18:26;;;;;;;;;;;;;;;6.36;64.21;100724.81;4987763;28;4703;-79
2023/04/01 13:21:19;;;;;;;;;;;;;;;6.38;64.17;100730.78;4986546;28;4905;-77
2023/04/01 13:24:13;;;;;;;;;;;;;;;6.41;64.17;100727.72;4989321;28;4949;-81
2023/04/01 13:27:04;;;;;;;;;;;;;;;6.42;64.13;100731.25;4984083;28;4992;-76
2023/04/01 13:29:56;;;;;;;;;;;;;;;6.43;64.44;100727.53;4981978;28;4834;-77
2023/04/01 13:32:48;;;;;;;;;;;;;;;6.47;64.18;100734.16;4984403;28;4778;-76
2023/04/01 13:35:40;;;;;;;;;;;;;;;6.48;64.20;100739.34;4987120;28;4973;-80
2023/04/01 13:38:31;;;;;;;;;;;;;;;6.50;64.47;100736.47;4984126;28;4593;-77
2023/04/01 13:41:24;;;;;;;;;;;;;;;6.52;64.17;100737.94;4986574;28;4917;-76
2023/04/01 13:44:17;;;;;;;;;;;;;;;6.51;64.72;100738.13;4975849;28;4779;-77
2023/04/01 13:47:09;;;;;;;;;;;;;;;6.55;64.43;100739.41;4983691;28;4847;-77
2023/04/01 13:50:01;;;;;;;;;;;;;;;6.57;64.58;100740.88;4979842;28;4722;-76
2023/04/01 13:52:53;;;;;;;;;;;;;;;6.58;64.59;100749.75;4979380;28;4839;-77
2023/04/01 13:55:44;;;;;;;;;;;;;;;6.61;64.50;100749.34;4974546;28;4881;-78
2023/04/01 13:58:37;;;;;;;;;;;;;;;6.62;64.84;100747.50;4974079;28;5169;-75
2023/04/01 14:01:29;;;;;;;;;;;;;;;6.64;64.97;100746.31;4973296;28;4564;-77
2023/04/01 14:04:21;;;;;;;;;;;;;;;6.66;64.84;100746.13;4973951;28;4786;-78
2023/04/01 14:07:13;;;;;;;;;;;;;;;6.67;64.71;100750.44;4972956;28;4712;-79
2023/04/01 14:10:05;;;;;;;;;;;;;;;6.69;64.83;100749.25;4974931;28;4556;-77
2023/04/01 14:12:57;;;;;;;;;;;;;;;6.73;65.15;100757.72;4979674;28;6601;-80
2023/04/01 14:15:49;;;;;;;;;;;;;;;6.73;65.16;100755.88;4983903;28;4771;-78
2023/04/01 14:18:43;;;;;;;;;;;;;;;6.75;65.11;100751.16;4982745;28;5467;-78
2023/04/01 14:21:35;;;;;;;;;;;;;;;6.79;64.92;100755.13;4979525;28;4911;-79
2023/04/01 14:24:26;;;;;;;;;;;;;;;6.80;65.16;100750.63;4983098;28;4717;-79
2023/04/01 14:27:19;;;;;;;;;;;;;;;6.82;65.23;100752.09;4980952;28;4915;-79
2023/04/01 14:30:11;;;;;;;;;;;;;;;6.85;65.13;100755.38;4983370;28;4794;-80
2023/04/01 14:33:02;;;;;;;;;;;;;;;6.87;65.18;100764.06;4981865;28;4682;-78
2023/04/01 14:35:55;;;;;;;;;;;;;;;6.89;65.30;100770.06;4985775;28;4723;-78
2023/04/01 14:38:47;;;;;;;;;;;;;;;6.91;64.93;100768.84;4985602;28;4694;-77
2023/04/01 14:41:39;;;;;;;;;;;;;;;6.94;65.11;100770.28;4985333;28;4685;-77
2023/04/01 14:44:30;;;;;;;;;;;;;;;6.95;64.99;100770.13;4985417;28;4876;-78
2023/04/01 14:47:22;;;;;;;;;;;;;;;6.97;65.38;100772.59;4983264;28;4691;-79
2023/04/01 14:50:14;;;;;;;;;;;;;;;6.98;65.27;100774.28;4983310;28;4783;-79
2023/04/01 14:53:05;;;;;;;;;;;;;;;7.02;65.30;100778.22;4982089;28;4853;-79
2023/04/01 14:55:58;;;;;;;;;;;;;;;7.04;65.06;100776.19;4982559;28;4799;-78
2023/04/01 14:58:50;;;;;;;;;;;;;;;7.05;65.26;100772.47;4981406;28;4923;-77
2023/04/01 15:01:42;;;;;;;;;;;;;;;7.06;65.55;100771.47;4977700;28;4829;-77
2023/04/01 15:04:33;;;;;;;;;;;;;;;7.09;65.09;100775.59;4974294;28;4813;-79
2023/04/01 15:07:26;;;;;;;;;;;;;;;7.08;65.34;100777.44;4969848;28;4855;-79